createdAt,value
2024-02-18T00:01:07.388Z,101645.07
2024-02-18T00:06:29.557Z,101654.91
2024-02-18T00:11:32.956Z,101657.02
2024-02-18T00:16:36.387Z,101661.03
2024-02-18T00:21:39.713Z,101666.02
2024-02-18T00:26:53.943Z,101671.79
2024-02-18T00:32:01.477Z,101678.48
2024-02-18T00:37:05.263Z,101680.84
2024-02-18T00:42:10.048Z,101682.64
2024-02-18T00:47:13.572Z,101690.98
2024-02-18T00:52:17.093Z,101678.89
2024-02-18T00:57:20.762Z,101682.52
2024-02-18T01:02:24.223Z,101677.34
2024-02-18T01:07:27.438Z,101675.41
2024-02-18T01:12:30.799Z,101676.45
2024-02-18T01:17:34.216Z,101688.58
2024-02-18T01:22:37.792Z,101691.81
2024-02-18T01:27:41.124Z,101703.55
2024-02-18T01:32:44.376Z,101708.72
2024-02-18T01:37:47.625Z,101720.08
2024-02-18T01:42:50.851Z,101723.83
2024-02-18T01:47:54.515Z,101719.41
2024-02-18T01:52:58.088Z,101722.16
2024-02-18T01:58:03.269Z,101720.67
2024-02-18T02:03:09.138Z,101722.27
2024-02-18T02:08:12.428Z,101730.83
2024-02-18T02:13:15.640Z,101725.70
2024-02-18T02:18:18.861Z,101721.36
2024-02-18T02:23:22.161Z,101721.06
2024-02-18T02:28:30.313Z,101720.13
2024-02-18T02:33:33.438Z,101716.00
2024-02-18T02:38:37.838Z,101718.45
2024-02-18T02:43:41.050Z,101726.48
2024-02-18T02:48:44.229Z,101723.85
2024-02-18T02:53:47.516Z,101722.46
2024-02-18T02:58:50.822Z,101718.87
2024-02-18T03:03:54.240Z,101730.63
2024-02-18T03:08:57.422Z,101731.75
2024-02-18T03:14:00.420Z,101733.19
2024-02-18T03:19:03.686Z,101728.89
2024-02-18T03:24:07.061Z,101730.27
2024-02-18T03:29:12.009Z,101732.20
2024-02-18T03:34:15.189Z,101733.92
2024-02-18T03:39:21.295Z,101735.31
2024-02-18T03:44:26.147Z,101742.30
2024-02-18T03:49:30.860Z,101747.35
2024-02-18T03:54:35.016Z,101753.03
2024-02-18T03:59:38.130Z,101751.45
2024-02-18T04:04:41.368Z,101754.39
2024-02-18T04:09:44.741Z,101754.70
2024-02-18T04:14:47.972Z,101757.60
2024-02-18T04:19:51.203Z,101756.84
2024-02-18T04:24:54.416Z,101756.15
2024-02-18T04:29:57.809Z,101761.19
2024-02-18T04:35:01.051Z,101764.17
2024-02-18T04:40:05.520Z,101765.95
2024-02-18T04:45:09.434Z,101764.25
2024-02-18T04:50:12.496Z,101761.98
2024-02-18T04:55:15.769Z,101762.59
2024-02-18T05:00:19.228Z,101764.38
2024-02-18T05:05:22.335Z,101765.88
2024-02-18T05:10:26.060Z,101774.63
2024-02-18T05:15:29.226Z,101777.88
2024-02-18T05:20:32.384Z,101779.82
2024-02-18T05:25:35.600Z,101790.60
2024-02-18T05:30:38.841Z,101797.90
2024-02-18T05:35:42.256Z,101799.54
2024-02-18T05:40:45.430Z,101797.71
2024-02-18T05:45:48.491Z,101799.29
2024-02-18T05:50:51.968Z,101800.23
2024-02-18T05:55:55.166Z,101803.67
2024-02-18T06:00:58.487Z,101823.02
2024-02-18T06:06:01.949Z,101819.50
2024-02-18T06:11:08.720Z,101819.44
2024-02-18T06:16:12.118Z,101827.27
2024-02-18T06:21:22.538Z,101823.67
2024-02-18T06:26:26.220Z,101821.70
2024-02-18T06:31:29.448Z,101820.73
2024-02-18T06:36:37.552Z,101820.03
2024-02-18T06:41:41.072Z,101819.17
2024-02-18T06:46:44.278Z,101829.41
2024-02-18T06:51:47.629Z,101831.38
2024-02-18T06:56:50.804Z,101836.77
2024-02-18T07:01:54.044Z,101839.26
2024-02-18T07:06:57.308Z,101838.10
2024-02-18T07:12:00.650Z,101837.52
2024-02-18T07:17:04.127Z,101839.67
2024-02-18T07:22:08.128Z,101841.88
2024-02-18T07:27:11.435Z,101843.13
2024-02-18T07:32:15.557Z,101846.10
2024-02-18T07:37:19.042Z,101841.20
2024-02-18T07:42:22.671Z,101841.09
2024-02-18T07:47:26.108Z,101843.59
2024-02-18T07:52:29.553Z,101839.86
2024-02-18T07:57:32.962Z,101840.27
2024-02-18T08:02:36.566Z,101850.57
2024-02-18T08:07:40.235Z,101850.30
2024-02-18T08:12:43.768Z,101852.64
2024-02-18T08:17:48.747Z,101844.89
2024-02-18T08:22:52.318Z,101846.56
2024-02-18T08:27:55.861Z,101841.11
2024-02-18T08:32:59.858Z,101848.33
2024-02-18T08:38:03.343Z,101847.52
2024-02-18T08:43:06.708Z,101833.97
2024-02-18T08:48:10.206Z,101841.50
2024-02-18T08:53:13.572Z,101842.92
2024-02-18T08:58:16.843Z,101840.07
2024-02-18T09:03:20.387Z,101837.17
2024-02-18T09:08:24.078Z,101841.02
2024-02-18T09:13:27.261Z,101841.55
2024-02-18T09:18:30.624Z,101833.45
2024-02-18T09:23:34.104Z,101832.80
2024-02-18T09:28:37.284Z,101827.88
2024-02-18T09:33:43.670Z,101825.38
2024-02-18T09:38:47.090Z,101833.79
2024-02-18T09:43:53.275Z,101834.02
2024-02-18T09:48:56.874Z,101829.16
2024-02-18T09:54:00.731Z,101823.73
2024-02-18T09:59:03.880Z,101816.06
2024-02-18T10:04:07.330Z,101810.65
2024-02-18T10:09:10.961Z,101807.86
2024-02-18T10:14:14.375Z,101803.58
2024-02-18T10:19:17.934Z,101800.45
2024-02-18T10:24:25.575Z,101789.36
2024-02-18T10:29:28.826Z,101788.38
2024-02-18T10:34:32.025Z,101781.35
2024-02-18T10:39:39.670Z,101783.33
2024-02-18T10:44:46.446Z,101776.36
2024-02-18T10:49:59.376Z,101778.09
2024-02-18T10:55:07.905Z,101775.98
2024-02-18T11:00:13.902Z,101776.05
2024-02-18T11:05:19.979Z,101766.83
2024-02-18T11:10:23.988Z,101759.15
2024-02-18T11:15:27.271Z,101761.33
2024-02-18T11:20:31.489Z,101754.45
2024-02-18T11:25:35.361Z,101751.00
2024-02-18T11:30:38.708Z,101744.40
2024-02-18T11:35:41.805Z,101742.45
2024-02-18T11:40:49.212Z,101733.26
2024-02-18T11:45:57.005Z,101732.01
2024-02-18T11:51:00.372Z,101722.80
2024-02-18T11:56:04.421Z,101715.23
2024-02-18T12:01:08.136Z,101716.44
2024-02-18T12:06:11.644Z,101704.61
2024-02-18T12:11:17.631Z,101699.05
2024-02-18T12:16:21.511Z,101698.10
2024-02-18T12:21:24.853Z,101695.59
2024-02-18T12:26:28.062Z,101691.58
2024-02-18T12:31:31.578Z,101678.08
2024-02-18T12:36:35.150Z,101673.23
2024-02-18T12:41:38.515Z,101663.49
2024-02-18T12:46:42.958Z,101655.38
2024-02-18T12:51:50.378Z,101649.67
2024-02-18T12:56:53.892Z,101645.52
2024-02-18T13:01:57.942Z,101640.91
2024-02-18T13:07:11.460Z,101638.53
2024-02-18T13:12:14.775Z,101644.80
2024-02-18T13:17:18.326Z,101640.89
2024-02-18T13:22:21.605Z,101630.54
2024-02-18T13:27:25.024Z,101625.76
2024-02-18T13:32:28.405Z,101624.91
2024-02-18T13:37:32.175Z,101617.77
2024-02-18T13:42:35.573Z,101609.79
2024-02-18T13:47:39.167Z,101608.43
2024-02-18T13:52:42.335Z,101590.38
2024-02-18T13:57:45.550Z,101582.60
2024-02-18T14:02:48.578Z,101590.87
2024-02-18T14:07:51.848Z,101594.98
2024-02-18T14:12:54.992Z,101578.34
2024-02-18T14:17:59.676Z,101570.88
2024-02-18T14:23:03.294Z,101561.45
2024-02-18T14:28:10.610Z,101560.70
2024-02-18T14:33:13.998Z,101552.84
2024-02-18T14:38:18.102Z,101554.42
2024-02-18T14:43:21.353Z,101552.92
2024-02-18T14:48:24.757Z,101549.69
2024-02-18T14:53:28.634Z,101544.71
2024-02-18T14:58:32.159Z,101533.63
2024-02-18T15:03:35.833Z,101529.65
2024-02-18T15:08:39.080Z,101521.52
2024-02-18T15:13:42.394Z,101516.12
2024-02-18T15:18:45.411Z,101509.86
2024-02-18T15:23:48.454Z,101507.32
2024-02-18T15:28:51.565Z,101507.59
2024-02-18T15:33:54.987Z,101507.31
2024-02-18T15:38:58.479Z,101497.15
2024-02-18T15:44:02.012Z,101476.79
2024-02-18T15:49:05.426Z,101478.23
2024-02-18T15:54:08.698Z,101477.60
2024-02-18T15:59:11.959Z,101471.55
2024-02-18T16:04:15.290Z,101471.56
2024-02-18T16:09:18.999Z,101468.20
2024-02-18T16:14:22.187Z,101459.66
2024-02-18T16:19:25.362Z,101451.85
2024-02-18T16:24:29.574Z,101440.95
2024-02-18T16:29:34.074Z,101441.71
2024-02-18T16:34:37.328Z,101428.20
2024-02-18T16:39:46.156Z,101428.16
2024-02-18T16:44:49.573Z,101425.19
2024-02-18T16:49:53.113Z,101417.10
2024-02-18T16:54:56.720Z,101406.55
2024-02-18T17:00:00.204Z,101402.02
2024-02-18T17:05:07.271Z,101400.38
2024-02-18T17:10:11.372Z,101394.48
2024-02-18T17:15:14.731Z,101381.00
2024-02-18T17:20:18.184Z,101379.16
2024-02-18T17:25:21.967Z,101378.55
2024-02-18T17:30:26.333Z,101370.55
2024-02-18T17:35:30.652Z,101366.52
2024-02-18T17:40:33.960Z,101360.03
2024-02-18T17:45:37.201Z,101354.29
2024-02-18T17:50:41.460Z,101340.43
2024-02-18T17:55:49.119Z,101331.14
2024-02-18T18:00:52.343Z,101326.17
2024-02-18T18:05:55.667Z,101328.39
2024-02-18T18:10:59.786Z,101317.64
2024-02-18T18:16:08.522Z,101317.08
2024-02-18T18:21:12.466Z,101313.76
2024-02-18T18:26:15.767Z,101312.84
2024-02-18T18:31:19.070Z,101306.40
2024-02-18T18:36:22.915Z,101298.01
2024-02-18T18:41:26.217Z,101295.06
2024-02-18T18:46:36.588Z,101284.00
2024-02-18T18:51:39.861Z,101276.03
2024-02-18T18:56:43.438Z,101267.67
2024-02-18T19:01:46.743Z,101259.91
2024-02-18T19:06:51.396Z,101257.58
2024-02-18T19:11:54.695Z,101251.45
2024-02-18T19:16:57.886Z,101245.66
2024-02-18T19:22:01.275Z,101244.61
2024-02-18T19:27:05.109Z,101234.69
2024-02-18T19:32:08.571Z,101230.45
2024-02-18T19:37:12.306Z,101221.88
2024-02-18T19:42:16.144Z,101213.83
2024-02-18T19:47:20.113Z,101210.84
2024-02-18T19:52:23.484Z,101209.61
2024-02-18T19:57:26.880Z,101209.11
2024-02-18T20:02:29.994Z,101206.86
2024-02-18T20:07:33.285Z,101194.52
2024-02-18T20:12:37.589Z,101192.98
2024-02-18T20:17:43.361Z,101185.05
2024-02-18T20:22:46.524Z,101180.47
2024-02-18T20:27:51.030Z,101179.88
2024-02-18T20:32:54.205Z,101177.37
2024-02-18T20:37:57.489Z,101171.55
2024-02-18T20:43:02.895Z,101163.48
2024-02-18T20:48:06.661Z,101161.67
2024-02-18T20:53:11.746Z,101156.65
2024-02-18T20:58:16.156Z,101153.90
2024-02-18T21:03:20.975Z,101151.55
2024-02-18T21:08:24.843Z,101148.56
2024-02-18T21:13:28.678Z,101144.84
2024-02-18T21:18:31.994Z,101142.39
2024-02-18T21:23:36.331Z,101136.99
2024-02-18T21:28:42.587Z,101128.10
2024-02-18T21:33:47.858Z,101117.77
2024-02-18T21:38:51.881Z,101116.45
2024-02-18T21:43:55.144Z,101109.53
2024-02-18T21:48:58.359Z,101105.22
2024-02-18T21:54:01.484Z,101098.20
2024-02-18T21:59:05.158Z,101091.17
2024-02-18T22:04:08.414Z,101077.73
2024-02-18T22:09:11.672Z,101067.98
2024-02-18T22:14:14.783Z,101056.85
2024-02-18T22:19:18.369Z,101053.23
2024-02-18T22:24:23.978Z,101044.12
2024-02-18T22:29:27.281Z,101039.13
2024-02-18T22:34:30.576Z,101028.84
2024-02-18T22:39:33.851Z,101016.27
2024-02-18T22:44:39.319Z,101005.40
2024-02-18T22:49:42.713Z,100994.70
2024-02-18T22:54:48.606Z,100980.95
2024-02-18T22:59:51.793Z,100974.13
2024-02-18T23:04:55.395Z,100980.77
2024-02-18T23:09:58.622Z,100975.52
2024-02-18T23:15:02.032Z,100967.16
2024-02-18T23:20:06.528Z,100970.38
2024-02-18T23:25:09.756Z,100963.38
2024-02-18T23:30:13.477Z,100957.27
2024-02-18T23:35:19.937Z,100953.41
2024-02-18T23:40:23.237Z,100945.73
2024-02-18T23:45:26.554Z,100942.23
2024-02-18T23:50:29.729Z,100935.75
2024-02-18T23:55:32.954Z,100929.12
